Time;durP1;ratioP1;P1;durP2;ratioP2;P2;SDS_P1;SDS_P2;PMS_P1;PMS_P2;Temp;Humidity;BMP_temperature;BMP_pressure;BME280_temperature;BME280_humidity;BME280_pressure;Samples;Min_cycle;Max_cycle;Signal;HPM_P1;HPM_P2
2021/12/05 00:19:06;;;;;;;;;0.50;0.50;;;;;;;;5098562;27;45363;-51
2021/12/05 00:24:00;;;;;;;;;0.00;0.00;;;;;;;;5097997;27;45459;-48
2021/12/05 00:26:27;;;;;;;;;0.00;0.00;;;;;;;;5096309;27;45420;-49
2021/12/05 00:31:46;;;;;;;;;0.00;0.00;;;;;;;;5098157;27;45428;-52
2021/12/05 00:40:10;;;;;;;;;2.00;0.00;;;;;;;;5098175;27;45359;-49
2021/12/05 00:47:37;;;;;;;;;0.00;0.00;;;;;;;;5097448;27;45444;-49
2021/12/05 01:01:14;;;;;;;;;0.25;0.25;;;;;;;;5077595;27;45495;-53
2021/12/05 01:04:25;;;;;;;;;1.00;0.00;;;;;;;;5077218;27;45351;-46
2021/12/05 01:09:24;;;;;;;;;0.00;0.00;;;;;;;;5076709;27;45434;-50
2021/12/05 01:15:13;;;;;;;;;0.00;0.00;;;;;;;;5077435;28;45230;-50
2021/12/05 01:17:16;;;;;;;;;0.00;0.00;;;;;;;;5072325;27;45366;-52
2021/12/05 01:19:42;;;;;;;;;0.00;0.00;;;;;;;;5076532;28;45459;-49
2021/12/05 01:22:11;;;;;;;;;0.00;0.00;;;;;;;;5077215;27;45388;-48
2021/12/05 01:24:57;;;;;;;;;1.00;0.00;;;;;;;;5059161;28;45412;-50
2021/12/05 01:27:38;;;;;;;;;0.00;0.00;;;;;;;;5096166;27;45455;-49
2021/12/05 01:30:15;;;;;;;;;0.00;0.00;;;;;;;;5078957;27;45385;-49
2021/12/05 01:32:54;;;;;;;;;0.00;0.00;;;;;;;;5078857;27;45243;-51
2021/12/05 01:38:56;;;;;;;;;0.00;0.00;;;;;;;;5096934;27;45476;-50
2021/12/05 01:40:59;;;;;;;;;0.25;0.00;;;;;;;;5082415;27;45592;-50
2021/12/05 01:59:27;;;;;;;;;0.00;0.00;;;;;;;;5096891;27;45382;-51
2021/12/05 02:15:58;;;;;;;;;0.00;0.00;;;;;;;;5096381;27;45432;-49
2021/12/05 02:37:50;;;;;;;;;1.00;0.00;;;;;;;;5079209;28;45354;-51
2021/12/05 02:40:31;;;;;;;;;0.00;0.00;;;;;;;;5079778;27;45559;-52
2021/12/05 02:43:08;;;;;;;;;1.50;0.75;;;;;;;;5079552;27;45290;-49
2021/12/05 02:45:34;;;;;;;;;0.00;0.00;;;;;;;;5061426;28;45875;-51
2021/12/05 02:48:00;;;;;;;;;0.00;0.00;;;;;;;;5079173;28;45367;-49
2021/12/05 02:50:29;;;;;;;;;0.00;0.00;;;;;;;;5079598;28;45288;-49
2021/12/05 02:52:59;;;;;;;;;0.00;0.00;;;;;;;;5079560;27;46054;-51
2021/12/05 02:55:36;;;;;;;;;0.00;0.00;;;;;;;;5070813;27;45512;-45
2021/12/05 02:58:13;;;;;;;;;0.00;0.00;;;;;;;;5081650;27;45346;-50
2021/12/05 03:00:43;;;;;;;;;0.75;0.75;;;;;;;;5094893;27;45311;-50
2021/12/05 03:03:18;;;;;;;;;0.00;0.00;;;;;;;;5091650;27;46102;-50
2021/12/05 03:05:45;;;;;;;;;0.25;0.00;;;;;;;;5079476;27;45413;-50
2021/12/05 03:08:10;;;;;;;;;0.00;0.00;;;;;;;;5079122;28;45346;-51
2021/12/05 03:10:35;;;;;;;;;0.00;0.00;;;;;;;;5078820;27;45495;-49
2021/12/05 03:13:01;;;;;;;;;0.00;0.00;;;;;;;;5080346;27;46470;-50
2021/12/05 03:15:26;;;;;;;;;0.00;0.00;;;;;;;;5093959;27;45308;-48
2021/12/05 03:17:52;;;;;;;;;0.00;0.00;;;;;;;;5079367;27;46198;-51
2021/12/05 03:20:18;;;;;;;;;0.00;0.00;;;;;;;;5078801;27;45660;-51
2021/12/05 03:22:44;;;;;;;;;1.00;0.00;;;;;;;;5078762;27;46068;-52
2021/12/05 03:25:10;;;;;;;;;0.00;0.00;;;;;;;;5090041;27;45428;-49
2021/12/05 03:27:36;;;;;;;;;0.00;0.00;;;;;;;;5099555;27;45372;-53
2021/12/05 03:30:03;;;;;;;;;0.00;0.00;;;;;;;;5099280;27;45351;-51
2021/12/05 03:32:28;;;;;;;;;0.00;0.00;;;;;;;;5098363;27;45410;-49
2021/12/05 03:34:54;;;;;;;;;0.00;0.00;;;;;;;;5099302;27;45404;-48
2021/12/05 03:37:19;;;;;;;;;2.00;0.00;;;;;;;;5075629;27;45331;-50
2021/12/05 03:39:44;;;;;;;;;1.00;0.00;;;;;;;;5099052;27;45428;-54
2021/12/05 03:42:10;;;;;;;;;2.00;0.00;;;;;;;;5099016;27;45453;-50
2021/12/05 03:44:36;;;;;;;;;0.00;0.00;;;;;;;;5082027;27;45189;-49
2021/12/05 03:47:05;;;;;;;;;0.00;0.00;;;;;;;;5095397;27;45288;-51
2021/12/05 03:49:31;;;;;;;;;0.00;0.00;;;;;;;;5099140;27;45421;-52
2021/12/05 03:52:10;;;;;;;;;0.00;0.00;;;;;;;;5098601;27;45462;-50
2021/12/05 03:54:35;;;;;;;;;0.00;0.00;;;;;;;;5098164;27;45312;-48
2021/12/05 03:57:02;;;;;;;;;0.75;0.75;;;;;;;;5096544;27;45449;-48
2021/12/05 03:59:28;;;;;;;;;0.00;0.00;;;;;;;;5099302;27;45465;-48
2021/12/05 04:01:54;;;;;;;;;0.00;0.00;;;;;;;;5098377;27;45483;-47
2021/12/05 04:04:19;;;;;;;;;0.00;0.00;;;;;;;;5098629;27;45415;-52
2021/12/05 04:06:45;;;;;;;;;0.00;0.00;;;;;;;;5085967;27;45346;-54
2021/12/05 04:09:11;;;;;;;;;0.00;0.00;;;;;;;;5078619;27;45486;-48
2021/12/05 04:11:39;;;;;;;;;0.00;0.00;;;;;;;;5078439;27;45440;-51
2021/12/05 04:14:06;;;;;;;;;1.00;1.00;;;;;;;;5092985;27;45383;-47
2021/12/05 04:16:31;;;;;;;;;0.00;0.00;;;;;;;;5091969;27;45419;-50
2021/12/05 04:18:57;;;;;;;;;0.00;0.00;;;;;;;;5079994;27;45561;-49
2021/12/05 04:21:22;;;;;;;;;1.75;0.00;;;;;;;;5078239;28;46369;-49
2021/12/05 04:23:47;;;;;;;;;0.00;0.00;;;;;;;;5078171;28;45200;-48
2021/12/05 04:26:13;;;;;;;;;0.75;0.00;;;;;;;;5078143;27;45335;-48
2021/12/05 04:28:39;;;;;;;;;0.00;0.00;;;;;;;;5078021;27;45275;-51
2021/12/05 04:31:07;;;;;;;;;0.00;0.00;;;;;;;;5077729;27;45284;-51
2021/12/05 04:33:33;;;;;;;;;0.75;0.00;;;;;;;;5077984;28;45335;-46
2021/12/05 04:35:58;;;;;;;;;0.00;0.00;;;;;;;;5093949;27;45215;-46
2021/12/05 04:38:23;;;;;;;;;0.00;0.00;;;;;;;;5090361;27;45295;-48
2021/12/05 04:40:49;;;;;;;;;0.00;0.00;;;;;;;;5098437;27;45477;-49
2021/12/05 04:43:14;;;;;;;;;0.00;0.00;;;;;;;;5088889;27;45311;-52
2021/12/05 04:45:40;;;;;;;;;0.00;0.00;;;;;;;;5081858;27;45496;-48
2021/12/05 04:48:06;;;;;;;;;0.25;0.00;;;;;;;;5077858;27;45346;-49
2021/12/05 04:50:32;;;;;;;;;0.75;0.00;;;;;;;;5078080;27;45563;-50
2021/12/05 04:52:57;;;;;;;;;0.00;0.00;;;;;;;;5077387;27;45314;-49
2021/12/05 04:55:23;;;;;;;;;0.00;0.00;;;;;;;;5078076;27;45323;-46
2021/12/05 04:57:48;;;;;;;;;0.00;0.00;;;;;;;;5077876;27;45287;-47
2021/12/05 05:00:19;;;;;;;;;0.00;0.00;;;;;;;;5076707;27;46447;-50
2021/12/05 05:02:44;;;;;;;;;0.00;0.00;;;;;;;;5077701;27;45383;-48
2021/12/05 05:05:11;;;;;;;;;0.00;0.00;;;;;;;;5084877;27;45338;-48
2021/12/05 05:07:38;;;;;;;;;0.00;0.00;;;;;;;;5087267;27;45581;-49
2021/12/05 05:10:14;;;;;;;;;0.00;0.00;;;;;;;;5097555;27;45361;-51
2021/12/05 05:12:40;;;;;;;;;0.00;0.00;;;;;;;;5096848;27;45359;-47
2021/12/05 05:15:06;;;;;;;;;0.00;0.00;;;;;;;;5091998;27;45364;-49
2021/12/05 05:17:32;;;;;;;;;0.00;0.00;;;;;;;;5097020;27;45450;-51
2021/12/05 05:20:07;;;;;;;;;0.00;0.00;;;;;;;;5096399;27;45482;-47
2021/12/05 05:49:21;;;;;;;;;0.00;0.00;;;;;;;;5083045;27;45580;-51
2021/12/05 05:51:46;;;;;;;;;0.00;0.00;;;;;;;;5097137;27;47307;-50
2021/12/05 05:54:12;;;;;;;;;0.00;0.00;;;;;;;;5096795;27;45391;-48
2021/12/05 05:56:39;;;;;;;;;1.75;0.00;;;;;;;;5096436;27;45284;-48
2021/12/05 05:59:16;;;;;;;;;0.00;0.00;;;;;;;;5097199;27;45462;-49
2021/12/05 06:04:16;;;;;;;;;1.00;0.00;;;;;;;;5093921;27;45305;-51
2021/12/05 06:06:41;;;;;;;;;0.00;0.00;;;;;;;;5075564;28;45446;-48
2021/12/05 06:09:08;;;;;;;;;0.00;0.00;;;;;;;;5076797;28;45502;-48
2021/12/05 06:11:33;;;;;;;;;5.00;0.00;;;;;;;;5076485;28;46462;-50
2021/12/05 06:13:58;;;;;;;;;0.00;0.00;;;;;;;;5095648;27;45211;-48
2021/12/05 06:16:23;;;;;;;;;0.00;0.00;;;;;;;;5089819;27;45207;-49
2021/12/05 06:18:49;;;;;;;;;0.00;0.00;;;;;;;;5076600;27;45307;-49
2021/12/05 06:21:15;;;;;;;;;0.00;0.00;;;;;;;;5096010;27;45329;-48
2021/12/05 06:23:40;;;;;;;;;0.00;0.00;;;;;;;;5078508;27;45320;-48
2021/12/05 06:26:08;;;;;;;;;1.00;0.00;;;;;;;;5095966;27;45504;-48
2021/12/05 06:28:41;;;;;;;;;1.00;0.00;;;;;;;;5096348;27;45544;-48
2021/12/05 06:47:10;;;;;;;;;0.00;0.00;;;;;;;;5079120;27;45365;-46
2021/12/05 06:49:35;;;;;;;;;1.00;0.00;;;;;;;;5078332;27;45410;-49
2021/12/05 06:52:00;;;;;;;;;0.00;0.00;;;;;;;;5096283;27;45358;-49
2021/12/05 06:54:26;;;;;;;;;0.00;0.00;;;;;;;;5096346;27;45275;-48
2021/12/05 06:56:51;;;;;;;;;0.00;0.00;;;;;;;;5096599;27;45353;-48
2021/12/05 06:59:16;;;;;;;;;0.00;0.00;;;;;;;;5096120;27;45182;-46
2021/12/05 07:01:42;;;;;;;;;1.00;1.00;;;;;;;;5084228;27;45191;-45
2021/12/05 07:04:29;;;;;;;;;0.00;0.00;;;;;;;;5094371;27;45451;-46
2021/12/05 07:06:52;;;;;;;;;0.00;0.00;;;;;;;;5095757;27;45407;-47
2021/12/05 07:09:17;;;;;;;;;0.00;0.00;;;;;;;;5095929;27;45230;-49
2021/12/05 07:20:03;;;;;;;;;0.00;0.00;;;;;;;;5057593;27;45566;-45
2021/12/05 07:22:42;;;;;;;;;0.50;0.50;;;;;;;;5064372;28;45606;-48
2021/12/05 07:25:24;;;;;;;;;0.00;0.00;;;;;;;;5079117;27;45174;-50
2021/12/05 07:43:45;;;;;;;;;0.00;0.00;;;;;;;;5099159;27;45994;-50
2021/12/05 07:46:11;;;;;;;;;1.00;0.00;;;;;;;;5094140;27;45418;-49
2021/12/05 07:48:39;;;;;;;;;0.00;0.00;;;;;;;;5099371;27;45314;-51
2021/12/05 07:53:49;;;;;;;;;0.50;0.50;;;;;;;;5098580;27;45174;-46
2021/12/05 07:56:31;;;;;;;;;1.50;0.00;;;;;;;;5093948;27;45563;-45
2021/12/05 08:14:57;;;;;;;;;0.00;0.00;;;;;;;;5095613;27;45551;-48
2021/12/05 08:17:22;;;;;;;;;1.50;0.00;;;;;;;;5080864;27;45303;-48
2021/12/05 08:19:48;;;;;;;;;0.00;0.00;;;;;;;;5077997;27;45383;-50
2021/12/05 08:22:14;;;;;;;;;0.00;0.00;;;;;;;;5079177;27;45236;-48
2021/12/05 08:24:41;;;;;;;;;0.00;0.00;;;;;;;;5077943;27;45315;-45
2021/12/05 08:27:07;;;;;;;;;0.00;0.00;;;;;;;;5078555;27;45248;-48
2021/12/05 08:35:22;;;;;;;;;1.00;1.00;;;;;;;;5093487;27;45297;-49
2021/12/05 08:38:08;;;;;;;;;0.00;0.00;;;;;;;;5093891;27;45460;-49
2021/12/05 08:45:58;;;;;;;;;0.00;0.00;;;;;;;;5091579;27;45485;-47
2021/12/05 09:51:16;;;;;;;;;1.00;1.00;;;;;;;;5076544;28;45856;-49
2021/12/05 10:02:33;;;;;;;;;1.50;1.00;;;;;;;;5091673;27;45686;-46
2021/12/05 10:07:51;;;;;;;;;1.00;1.00;;;;;;;;5095541;27;45312;-48
2021/12/05 10:37:08;;;;;;;;;1.00;1.00;;;;;;;;5096499;27;45244;-49
2021/12/05 10:39:33;;;;;;;;;1.00;1.00;;;;;;;;5093737;27;45250;-47
2021/12/05 10:42:12;;;;;;;;;2.00;2.00;;;;;;;;5075416;28;45255;-51
2021/12/05 10:44:44;;;;;;;;;1.75;1.75;;;;;;;;5057845;28;46472;-49
2021/12/05 10:47:10;;;;;;;;;2.00;2.00;;;;;;;;5090461;27;45330;-47
2021/12/05 10:49:35;;;;;;;;;1.00;1.00;;;;;;;;5097541;27;45409;-51
2021/12/05 10:52:01;;;;;;;;;2.50;2.50;;;;;;;;5097811;27;45598;-51
2021/12/05 10:54:27;;;;;;;;;2.00;2.00;;;;;;;;5063989;27;47741;-49
2021/12/05 10:56:58;;;;;;;;;1.25;1.25;;;;;;;;5091460;27;45464;-45
2021/12/05 10:59:27;;;;;;;;;3.50;2.75;;;;;;;;5094741;27;45474;-47
2021/12/05 11:01:56;;;;;;;;;1.75;1.75;;;;;;;;5099105;27;45656;-46
2021/12/05 11:04:24;;;;;;;;;2.00;2.00;;;;;;;;5099116;27;45607;-47
2021/12/05 11:06:52;;;;;;;;;1.75;1.75;;;;;;;;5099344;27;45452;-47
2021/12/05 11:09:26;;;;;;;;;1.50;1.50;;;;;;;;5098685;27;45353;-51
2021/12/05 11:11:52;;;;;;;;;2.00;2.00;;;;;;;;5090887;27;45548;-47
2021/12/05 11:14:19;;;;;;;;;2.00;2.00;;;;;;;;5099029;27;45315;-49
2021/12/05 11:16:46;;;;;;;;;2.00;2.00;;;;;;;;5080642;27;45407;-50
2021/12/05 11:19:35;;;;;;;;;1.25;1.25;;;;;;;;5099319;27;45391;-50
2021/12/05 11:22:02;;;;;;;;;4.50;2.00;;;;;;;;5090797;27;45388;-51
2021/12/05 11:24:35;;;;;;;;;2.00;2.00;;;;;;;;5098861;27;45404;-46
2021/12/05 11:27:03;;;;;;;;;1.00;1.00;;;;;;;;5099005;27;45386;-47
2021/12/05 11:29:45;;;;;;;;;2.00;2.00;;;;;;;;5097463;27;45386;-49
2021/12/05 11:32:13;;;;;;;;;2.00;2.00;;;;;;;;5098159;27;45505;-51
2021/12/05 11:34:38;;;;;;;;;3.00;3.00;;;;;;;;5098441;27;45488;-48
2021/12/05 11:37:03;;;;;;;;;2.00;2.00;;;;;;;;5094496;27;45490;-51
2021/12/05 11:39:29;;;;;;;;;3.00;3.00;;;;;;;;5098931;27;45449;-48
2021/12/05 11:41:56;;;;;;;;;4.25;2.75;;;;;;;;5098429;27;45611;-51
2021/12/05 11:44:21;;;;;;;;;4.50;2.50;;;;;;;;5099306;27;45436;-50
2021/12/05 11:46:47;;;;;;;;;5.00;5.00;;;;;;;;5097895;27;45361;-49
2021/12/05 11:49:18;;;;;;;;;1.00;1.00;;;;;;;;5099280;27;45282;-48
2021/12/05 11:51:46;;;;;;;;;2.50;2.50;;;;;;;;5098391;27;45642;-51
2021/12/05 11:54:26;;;;;;;;;3.00;3.00;;;;;;;;5098894;27;45313;-48
2021/12/05 11:56:51;;;;;;;;;2.25;2.00;;;;;;;;5098129;27;45371;-46
2021/12/05 11:59:25;;;;;;;;;3.00;3.00;;;;;;;;5098023;27;45260;-48
2021/12/05 12:01:59;;;;;;;;;7.00;3.00;;;;;;;;5098240;27;45558;-48
2021/12/05 12:04:36;;;;;;;;;1.00;1.00;;;;;;;;5082589;27;46007;-50
2021/12/05 12:07:24;;;;;;;;;2.00;0.00;;;;;;;;5096212;27;45563;-49
2021/12/05 12:09:52;;;;;;;;;2.00;0.75;;;;;;;;5089060;27;45343;-51
2021/12/05 12:12:18;;;;;;;;;1.00;1.00;;;;;;;;5097076;27;45368;-50
2021/12/05 12:14:43;;;;;;;;;0.00;0.00;;;;;;;;5080311;27;46361;-53
2021/12/05 12:17:14;;;;;;;;;1.25;1.00;;;;;;;;5097989;27;45248;-52
2021/12/05 12:19:40;;;;;;;;;0.00;0.00;;;;;;;;5098331;27;45345;-47
2021/12/05 12:22:07;;;;;;;;;0.75;0.75;;;;;;;;5098535;27;45248;-47
2021/12/05 12:24:33;;;;;;;;;1.00;1.00;;;;;;;;5098379;27;45954;-49
2021/12/05 12:26:58;;;;;;;;;0.50;0.00;;;;;;;;5096969;27;45303;-49
2021/12/05 12:29:24;;;;;;;;;0.75;0.75;;;;;;;;5096948;27;45357;-48
2021/12/05 12:31:50;;;;;;;;;0.00;0.00;;;;;;;;5093015;27;45423;-47
2021/12/05 12:34:18;;;;;;;;;0.50;0.50;;;;;;;;5088942;27;45384;-48
2021/12/05 12:36:44;;;;;;;;;0.00;0.00;;;;;;;;5094798;27;45413;-49
2021/12/05 12:39:16;;;;;;;;;0.25;0.25;;;;;;;;5088289;27;45449;-50
2021/12/05 12:41:42;;;;;;;;;0.00;0.00;;;;;;;;5093612;27;45514;-47
2021/12/05 12:44:08;;;;;;;;;0.75;0.75;;;;;;;;5093065;27;45572;-49
2021/12/05 12:46:50;;;;;;;;;1.00;1.00;;;;;;;;5091953;27;45391;-51
2021/12/05 12:49:15;;;;;;;;;0.75;0.75;;;;;;;;5079606;27;45228;-50
2021/12/05 12:51:43;;;;;;;;;1.00;1.00;;;;;;;;5091398;27;45551;-49
2021/12/05 12:54:17;;;;;;;;;1.00;1.00;;;;;;;;5081998;27;45553;-45
2021/12/05 12:56:58;;;;;;;;;0.00;0.00;;;;;;;;5077685;27;45393;-48
2021/12/05 12:59:27;;;;;;;;;1.75;1.75;;;;;;;;5078907;27;45313;-49
2021/12/05 13:02:27;;;;;;;;;0.50;0.50;;;;;;;;5093157;27;45259;-51
2021/12/05 13:10:30;;;;;;;;;2.00;2.00;;;;;;;;5080215;27;45359;-52
2021/12/05 13:12:58;;;;;;;;;2.00;0.50;;;;;;;;5076657;27;45264;-53
2021/12/05 13:15:26;;;;;;;;;1.50;1.50;;;;;;;;5077554;27;46130;-50
2021/12/05 13:17:56;;;;;;;;;1.75;1.75;;;;;;;;5092443;27;45447;-50
2021/12/05 13:20:40;;;;;;;;;2.75;1.75;;;;;;;;5091042;27;45232;-52
2021/12/05 13:23:26;;;;;;;;;3.00;3.00;;;;;;;;5085615;27;45650;-52
2021/12/05 13:26:17;;;;;;;;;3.00;3.00;;;;;;;;5096816;27;45432;-50
2021/12/05 13:28:45;;;;;;;;;3.50;2.00;;;;;;;;5095888;27;45457;-52
2021/12/05 13:31:28;;;;;;;;;4.00;4.00;;;;;;;;5088836;27;45465;-50
2021/12/05 13:34:12;;;;;;;;;3.00;3.00;;;;;;;;5077264;28;45451;-53
2021/12/05 13:36:38;;;;;;;;;3.00;3.00;;;;;;;;5089754;27;45458;-51
2021/12/05 13:39:23;;;;;;;;;4.00;4.00;;;;;;;;5080614;27;45256;-53
2021/12/05 13:42:00;;;;;;;;;3.00;3.00;;;;;;;;5058933;28;45239;-49
2021/12/05 13:44:45;;;;;;;;;2.25;2.25;;;;;;;;5088927;27;45601;-54
2021/12/05 13:47:14;;;;;;;;;4.00;4.00;;;;;;;;5085729;27;45489;-49
2021/12/05 13:49:40;;;;;;;;;3.50;3.50;;;;;;;;5086347;27;45490;-47
2021/12/05 13:52:24;;;;;;;;;2.50;2.50;;;;;;;;5088023;27;45532;-54
2021/12/05 13:54:49;;;;;;;;;3.00;3.00;;;;;;;;5090925;27;45444;-50
2021/12/05 13:57:14;;;;;;;;;8.50;7.50;;;;;;;;5076834;27;47382;-54
2021/12/05 13:59:40;;;;;;;;;16.00;15.50;;;;;;;;5093569;27;45353;-55
2021/12/05 14:02:05;;;;;;;;;9.50;9.50;;;;;;;;5086373;27;45475;-52
2021/12/05 14:04:34;;;;;;;;;10.75;9.75;;;;;;;;5091566;27;45627;-54
2021/12/05 14:07:01;;;;;;;;;5.00;5.00;;;;;;;;5075067;28;45508;-49
2021/12/05 14:09:36;;;;;;;;;4.75;4.75;;;;;;;;5081531;27;45538;-49
2021/12/05 14:12:06;;;;;;;;;3.00;3.00;;;;;;;;5084826;27;45381;-53
2021/12/05 14:14:35;;;;;;;;;2.00;2.00;;;;;;;;5077974;27;45449;-52
2021/12/05 14:17:03;;;;;;;;;2.00;2.00;;;;;;;;5094972;27;45403;-52
2021/12/05 14:19:30;;;;;;;;;2.00;2.00;;;;;;;;5096382;27;45361;-49
2021/12/05 14:21:58;;;;;;;;;4.75;2.75;;;;;;;;5078059;27;45571;-51
2021/12/05 14:24:25;;;;;;;;;2.00;2.00;;;;;;;;5077447;28;45553;-52
2021/12/05 14:26:51;;;;;;;;;5.75;4.75;;;;;;;;5078814;28;46548;-52
2021/12/05 14:29:18;;;;;;;;;6.50;3.50;;;;;;;;5095115;27;45282;-52
2021/12/05 14:31:46;;;;;;;;;3.25;3.25;;;;;;;;5099738;27;45203;-50
2021/12/05 14:34:11;;;;;;;;;2.00;2.00;;;;;;;;5100381;27;45436;-53
2021/12/05 14:36:41;;;;;;;;;2.00;1.25;;;;;;;;5100198;27;45444;-46
2021/12/05 14:39:09;;;;;;;;;2.00;2.00;;;;;;;;5086755;27;45385;-51
2021/12/05 14:41:34;;;;;;;;;4.00;2.00;;;;;;;;5079237;28;45439;-50
2021/12/05 14:44:00;;;;;;;;;2.00;2.00;;;;;;;;5079125;27;45211;-48
2021/12/05 14:46:26;;;;;;;;;3.00;3.00;;;;;;;;5079048;28;46559;-53
2021/12/05 14:48:55;;;;;;;;;4.75;3.00;;;;;;;;5079193;28;45246;-48
2021/12/05 14:51:41;;;;;;;;;1.75;1.75;;;;;;;;5079536;27;45354;-56
2021/12/05 14:54:07;;;;;;;;;2.00;2.00;;;;;;;;5077646;28;45441;-51
2021/12/05 14:56:33;;;;;;;;;3.00;3.00;;;;;;;;5079241;28;46223;-50
2021/12/05 14:59:02;;;;;;;;;4.25;1.00;;;;;;;;5079448;28;45397;-55
2021/12/05 15:01:28;;;;;;;;;3.00;3.00;;;;;;;;5082364;27;45637;-54
2021/12/05 15:03:53;;;;;;;;;2.25;2.25;;;;;;;;5096263;27;45624;-50
2021/12/05 15:06:19;;;;;;;;;3.50;3.50;;;;;;;;5095611;27;46077;-52
2021/12/05 15:08:45;;;;;;;;;2.75;2.75;;;;;;;;5079427;27;45555;-52
2021/12/05 15:11:10;;;;;;;;;4.50;3.00;;;;;;;;5079319;28;45323;-53
2021/12/05 15:13:36;;;;;;;;;4.75;4.00;;;;;;;;5081308;27;45326;-49
2021/12/05 15:16:01;;;;;;;;;4.75;3.00;;;;;;;;5099061;27;45484;-47
2021/12/05 15:18:32;;;;;;;;;5.00;4.00;;;;;;;;5099396;27;45188;-52
2021/12/05 15:20:58;;;;;;;;;3.00;3.00;;;;;;;;5099827;27;45440;-52
2021/12/05 15:23:30;;;;;;;;;4.50;4.50;;;;;;;;5099558;27;45423;-52
2021/12/05 15:25:58;;;;;;;;;4.00;4.00;;;;;;;;5080860;27;45345;-53
2021/12/05 15:28:23;;;;;;;;;3.00;3.00;;;;;;;;5098780;27;45441;-52
2021/12/05 15:30:49;;;;;;;;;6.75;6.75;;;;;;;;5099437;27;45298;-50
2021/12/05 15:33:15;;;;;;;;;3.00;3.00;;;;;;;;5099466;27;45606;-52
2021/12/05 15:35:43;;;;;;;;;7.00;5.50;;;;;;;;5097956;27;45462;-50
2021/12/05 15:38:09;;;;;;;;;3.00;3.00;;;;;;;;5095651;27;45304;-54
2021/12/05 15:40:38;;;;;;;;;3.00;3.00;;;;;;;;5096191;27;45359;-58
2021/12/05 15:43:05;;;;;;;;;3.50;3.50;;;;;;;;5098307;27;45434;-53
2021/12/05 15:45:31;;;;;;;;;7.25;6.00;;;;;;;;5098937;27;45330;-56
2021/12/05 15:47:57;;;;;;;;;2.00;2.00;;;;;;;;5079948;27;45267;-48
2021/12/05 15:50:24;;;;;;;;;2.75;2.75;;;;;;;;5098235;27;45560;-49
2021/12/05 15:52:49;;;;;;;;;2.75;2.75;;;;;;;;5099341;27;45490;-58
2021/12/05 15:55:21;;;;;;;;;2.25;2.25;;;;;;;;5103805;27;45985;-55
2021/12/05 15:57:48;;;;;;;;;5.00;2.75;;;;;;;;5119964;27;45347;-54
2021/12/05 16:00:16;;;;;;;;;2.75;2.00;;;;;;;;5118843;27;45380;-53
2021/12/05 16:02:47;;;;;;;;;2.00;2.00;;;;;;;;5119688;27;45289;-52
2021/12/05 16:05:13;;;;;;;;;3.25;2.75;;;;;;;;5094311;27;46371;-55
2021/12/05 16:07:38;;;;;;;;;4.25;3.00;;;;;;;;5097929;27;45376;-52
2021/12/05 16:10:08;;;;;;;;;2.75;2.75;;;;;;;;5098797;27;45358;-53
2021/12/05 16:12:36;;;;;;;;;5.00;2.50;;;;;;;;5098623;27;45418;-54
2021/12/05 16:15:02;;;;;;;;;5.25;5.25;;;;;;;;5098617;27;46278;-54
2021/12/05 16:17:29;;;;;;;;;5.00;2.75;;;;;;;;5098595;27;45418;-51
2021/12/05 16:20:12;;;;;;;;;5.00;5.00;;;;;;;;5098922;27;45305;-55
2021/12/05 16:22:55;;;;;;;;;5.75;5.00;;;;;;;;5097341;27;45527;-54
2021/12/05 16:25:21;;;;;;;;;5.50;3.75;;;;;;;;5098360;27;46184;-53
2021/12/05 16:27:48;;;;;;;;;2.00;2.00;;;;;;;;5098493;27;45200;-54
2021/12/05 16:30:21;;;;;;;;;3.00;3.00;;;;;;;;5098679;27;45390;-54
2021/12/05 16:32:46;;;;;;;;;4.75;4.75;;;;;;;;5097893;27;45476;-55
2021/12/05 16:35:22;;;;;;;;;3.00;3.00;;;;;;;;5098324;27;47092;-52
2021/12/05 16:37:48;;;;;;;;;5.75;5.75;;;;;;;;5079403;27;45503;-50
2021/12/05 16:40:13;;;;;;;;;5.25;5.25;;;;;;;;5098003;27;45446;-54
2021/12/05 16:42:39;;;;;;;;;5.75;5.00;;;;;;;;5098511;27;45223;-52
2021/12/05 16:45:05;;;;;;;;;5.75;5.00;;;;;;;;5097462;27;46257;-51
2021/12/05 16:47:31;;;;;;;;;7.25;5.50;;;;;;;;5096978;27;45379;-51
2021/12/05 16:50:00;;;;;;;;;4.50;2.75;;;;;;;;5098317;27;45444;-55
2021/12/05 16:52:37;;;;;;;;;7.00;5.50;;;;;;;;5098187;27;45598;-54
2021/12/05 16:55:10;;;;;;;;;12.75;10.25;;;;;;;;5096249;27;46116;-52
2021/12/05 16:57:52;;;;;;;;;6.75;6.75;;;;;;;;5097609;27;45379;-54
2021/12/05 17:00:20;;;;;;;;;9.00;9.00;;;;;;;;5098074;27;45414;-53
2021/12/05 17:02:52;;;;;;;;;5.00;5.00;;;;;;;;5098136;27;45260;-52
2021/12/05 17:05:28;;;;;;;;;6.50;5.25;;;;;;;;5097485;27;46023;-53
2021/12/05 17:08:08;;;;;;;;;6.00;3.75;;;;;;;;5078215;27;45462;-53
2021/12/05 17:10:39;;;;;;;;;5.75;5.75;;;;;;;;5059464;28;45469;-57
2021/12/05 17:13:09;;;;;;;;;7.00;7.00;;;;;;;;5082213;27;45429;-53
2021/12/05 17:15:36;;;;;;;;;5.75;5.75;;;;;;;;5097869;27;45192;-55
2021/12/05 17:18:04;;;;;;;;;8.00;7.25;;;;;;;;5097201;27;45386;-53
2021/12/05 17:20:35;;;;;;;;;5.00;5.00;;;;;;;;5097720;27;45401;-49
2021/12/05 17:23:04;;;;;;;;;3.50;3.50;;;;;;;;5097766;27;45185;-52
2021/12/05 17:25:29;;;;;;;;;5.75;5.75;;;;;;;;5097504;27;46148;-53
2021/12/05 17:27:54;;;;;;;;;6.60;6.60;;;;;;;;5097404;27;45384;-53
2021/12/05 17:30:20;;;;;;;;;5.75;5.75;;;;;;;;5097403;27;45394;-50
2021/12/05 17:32:45;;;;;;;;;6.00;6.00;;;;;;;;5097382;27;45343;-53
2021/12/05 17:35:10;;;;;;;;;6.75;5.75;;;;;;;;5097250;27;45355;-55
2021/12/05 17:37:35;;;;;;;;;7.00;7.00;;;;;;;;5078967;27;45423;-53
2021/12/05 17:40:04;;;;;;;;;7.25;6.75;;;;;;;;5076540;27;45223;-54
2021/12/05 17:42:30;;;;;;;;;8.00;6.25;;;;;;;;5077092;28;45586;-55
2021/12/05 17:44:57;;;;;;;;;8.25;8.00;;;;;;;;5076472;28;45300;-54
2021/12/05 17:47:24;;;;;;;;;6.00;6.00;;;;;;;;5084035;27;45433;-51
2021/12/05 17:49:50;;;;;;;;;6.00;6.00;;;;;;;;5096843;27;45343;-50
2021/12/05 17:52:17;;;;;;;;;8.00;8.00;;;;;;;;5097387;27;45402;-52
2021/12/05 17:55:03;;;;;;;;;5.00;5.00;;;;;;;;5096719;27;46151;-53
2021/12/05 17:57:38;;;;;;;;;5.00;5.00;;;;;;;;5097130;27;45324;-53
2021/12/05 18:00:21;;;;;;;;;5.50;5.50;;;;;;;;5096716;27;45411;-48
2021/12/05 18:02:53;;;;;;;;;7.50;7.50;;;;;;;;5096887;27;45335;-51
2021/12/05 18:05:24;;;;;;;;;9.50;9.50;;;;;;;;5095523;27;46945;-55
2021/12/05 18:07:50;;;;;;;;;10.00;9.25;;;;;;;;5075900;27;45415;-56
2021/12/05 18:10:20;;;;;;;;;11.75;11.75;;;;;;;;5058295;28;45333;-49
2021/12/05 18:12:46;;;;;;;;;12.00;11.50;;;;;;;;5075906;28;45460;-53
2021/12/05 18:15:17;;;;;;;;;11.00;10.00;;;;;;;;5076292;28;46060;-57
2021/12/05 18:17:42;;;;;;;;;10.50;10.50;;;;;;;;5076308;28;45378;-51
2021/12/05 18:20:10;;;;;;;;;11.25;11.25;;;;;;;;5076470;28;45342;-52
2021/12/05 18:22:35;;;;;;;;;12.00;12.00;;;;;;;;5093622;27;45541;-50
2021/12/05 18:25:01;;;;;;;;;10.75;10.75;;;;;;;;5096750;27;45375;-53
2021/12/05 18:27:26;;;;;;;;;14.75;11.25;;;;;;;;5096689;27;45413;-54
2021/12/05 18:29:52;;;;;;;;;12.25;12.25;;;;;;;;5096802;27;45259;-56
2021/12/05 18:32:18;;;;;;;;;11.00;10.00;;;;;;;;5096772;27;45500;-52
2021/12/05 18:34:44;;;;;;;;;9.50;9.25;;;;;;;;5095972;27;47469;-51
2021/12/05 18:37:10;;;;;;;;;8.00;8.00;;;;;;;;5077731;27;45209;-53
2021/12/05 18:39:38;;;;;;;;;11.00;11.00;;;;;;;;5093989;27;45318;-55
2021/12/05 18:42:06;;;;;;;;;8.25;8.00;;;;;;;;5096411;27;45358;-54
2021/12/05 18:44:35;;;;;;;;;10.75;10.00;;;;;;;;5088680;27;45381;-49
2021/12/05 18:47:00;;;;;;;;;10.00;10.00;;;;;;;;5075910;28;45279;-54
2021/12/05 18:49:28;;;;;;;;;14.25;14.25;;;;;;;;5076219;28;45301;-53
2021/12/05 18:51:54;;;;;;;;;17.00;16.00;;;;;;;;5075917;28;45565;-52
2021/12/05 18:54:19;;;;;;;;;17.00;16.50;;;;;;;;5075463;28;45389;-54
2021/12/05 18:56:45;;;;;;;;;17.75;17.00;;;;;;;;5094125;27;45343;-55
2021/12/05 18:59:12;;;;;;;;;17.25;16.00;;;;;;;;5096328;27;45315;-50
2021/12/05 19:04:31;;;;;;;;;14.50;14.50;;;;;;;;5095954;27;45293;-52
2021/12/05 19:07:03;;;;;;;;;18.25;18.25;;;;;;;;5092400;27;45485;-53
2021/12/05 19:11:39;;;;;;;;;17.25;16.25;;;;;;;;5096103;27;45256;-57
2021/12/05 19:12:15;;;;;;;;;16.00;16.00;;;;;;;;5099032;27;45492;-55
2021/12/05 19:14:42;;;;;;;;;15.25;15.25;;;;;;;;5081001;27;45568;-53
2021/12/05 19:17:09;;;;;;;;;15.25;13.50;;;;;;;;5078876;27;45428;-57
2021/12/05 19:19:37;;;;;;;;;15.75;12.25;;;;;;;;5078351;28;45321;-52
2021/12/05 19:22:03;;;;;;;;;15.25;13.00;;;;;;;;5060772;28;45354;-56
2021/12/05 19:24:29;;;;;;;;;14.25;14.25;;;;;;;;5078608;28;45371;-54
2021/12/05 19:26:55;;;;;;;;;18.25;17.00;;;;;;;;5079054;28;45409;-54
2021/12/05 19:29:21;;;;;;;;;13.25;13.25;;;;;;;;5085505;27;45286;-54
2021/12/05 19:31:47;;;;;;;;;15.75;15.00;;;;;;;;5099198;27;45472;-55
2021/12/05 19:34:12;;;;;;;;;15.25;14.00;;;;;;;;5099199;27;45275;-53
2021/12/05 19:36:37;;;;;;;;;19.50;13.25;;;;;;;;5087574;27;45263;-51
2021/12/05 19:39:04;;;;;;;;;17.25;15.75;;;;;;;;5099205;27;45264;-56
2021/12/05 19:41:29;;;;;;;;;14.00;14.00;;;;;;;;5098819;27;45180;-54
2021/12/05 19:43:55;;;;;;;;;13.00;13.00;;;;;;;;5078453;27;46211;-53
2021/12/05 19:46:21;;;;;;;;;12.25;11.00;;;;;;;;5085475;27;45407;-54
2021/12/05 19:48:47;;;;;;;;;10.75;10.25;;;;;;;;5099104;27;45361;-51
2021/12/05 19:51:15;;;;;;;;;11.75;10.25;;;;;;;;5098625;27;45517;-53
2021/12/05 19:53:41;;;;;;;;;14.50;12.75;;;;;;;;5098761;27;45350;-54
2021/12/05 19:56:08;;;;;;;;;10.00;10.00;;;;;;;;5098698;27;46135;-53
2021/12/05 19:58:34;;;;;;;;;12.25;12.00;;;;;;;;5095026;27;45582;-54
2021/12/05 20:01:00;;;;;;;;;10.25;8.00;;;;;;;;5093299;27;45296;-51
2021/12/05 20:03:26;;;;;;;;;7.00;7.00;;;;;;;;5085197;27;45576;-57